Orbital elements of COSMOS 2251 DEB
| Launched | 15 June 1993 |
| Flight ended | – |
| Launch site | Plesetsk Missile and Space Complex, Russia |
| Owner | Commonwealth of Independent States (former USSR) |
| NORAD ID | 33945 |
| Date fetched |
Epoch osculation |
Inc. [°] |
Ecc. | RA asc node [hr] |
Arg Peri. [°] |
Mean anom [°] |
Mean motion [rev/day] |
Abs. mag |
| Date fetched |
Epoch osculation |
Inc. [°] |
Ecc. | RA asc node [hr] |
Arg Peri. [°] |
Mean anom [°] |
Mean motion [rev/day] |
Abs. mag |
| 2026 May 08 17:57 | 2026 May 05 11:53:41 | 74.0311 | 0.00217 | 2.8555 | 98.5226 | 261.8392 | 14.34715 | – |
| 2026 May 07 17:58 | 2026 May 05 11:53:41 | 74.0311 | 0.00217 | 2.8555 | 98.5226 | 261.8392 | 14.34715 | – |
| 2026 May 06 17:57 | 2026 May 05 11:53:41 | 74.0311 | 0.00217 | 2.8555 | 98.5226 | 261.8392 | 14.34715 | – |
| 2026 May 05 17:57 | 2026 May 05 11:53:41 | 74.0311 | 0.00217 | 2.8555 | 98.5226 | 261.8392 | 14.34715 | – |
| 2026 May 04 17:57 | 2026 Apr 30 13:04:39 | 74.0307 | 0.00218 | 3.4603 | 109.3213 | 261.8392 | 14.34715 | – |
| 2026 May 03 17:57 | 2026 Apr 30 13:04:39 | 74.0307 | 0.00218 | 3.4603 | 109.3213 | 261.8392 | 14.34715 | – |
| 2026 May 02 17:57 | 2026 Apr 30 13:04:39 | 74.0307 | 0.00218 | 3.4603 | 109.3213 | 261.8392 | 14.34715 | – |
| 2026 May 01 17:56 | 2026 Apr 30 13:04:39 | 74.0307 | 0.00218 | 3.4603 | 109.3213 | 261.8392 | 14.34715 | – |
| 2026 Apr 30 17:56 | 2026 Apr 30 13:04:39 | 74.0307 | 0.00218 | 3.4603 | 109.3213 | 261.8392 | 14.34715 | – |
| 2026 Apr 29 17:57 | 2026 Apr 24 06:27:50 | 74.0297 | 0.00218 | 4.2270 | 122.9777 | 261.8392 | 14.34715 | – |
| 2026 Apr 28 17:56 | 2026 Apr 24 06:27:50 | 74.0297 | 0.00218 | 4.2270 | 122.9777 | 261.8392 | 14.34715 | – |
| 2026 Apr 27 17:58 | 2026 Apr 24 06:27:50 | 74.0297 | 0.00218 | 4.2270 | 122.9777 | 261.8392 | 14.34715 | – |
| 2026 Apr 26 17:58 | 2026 Apr 24 06:27:50 | 74.0297 | 0.00218 | 4.2270 | 122.9777 | 261.8392 | 14.34715 | – |
| 2026 Apr 25 17:58 | 2026 Apr 24 06:27:50 | 74.0297 | 0.00218 | 4.2270 | 122.9777 | 261.8392 | 14.34715 | – |
| 2026 Apr 24 17:59 | 2026 Apr 24 06:27:50 | 74.0297 | 0.00218 | 4.2270 | 122.9777 | 261.8392 | 14.34715 | – |
| 2026 Apr 23 17:57 | 2026 Apr 19 07:38:45 | 74.0288 | 0.00219 | 4.8318 | 133.7180 | 261.8392 | 14.34715 | – |
| 2026 Apr 22 17:57 | 2026 Apr 19 07:38:45 | 74.0288 | 0.00219 | 4.8318 | 133.7180 | 261.8392 | 14.34715 | – |
| 2026 Apr 21 17:57 | 2026 Apr 19 07:38:45 | 74.0288 | 0.00219 | 4.8318 | 133.7180 | 261.8392 | 14.34715 | – |
| 2026 Apr 20 17:57 | 2026 Apr 19 07:38:45 | 74.0288 | 0.00219 | 4.8318 | 133.7180 | 261.8392 | 14.34715 | – |
| 2026 Apr 19 17:58 | 2026 Apr 19 07:38:45 | 74.0288 | 0.00219 | 4.8318 | 133.7180 | 261.8392 | 14.34715 | – |
| 2026 Apr 18 17:56 | 2026 Apr 13 04:22:43 | 74.0277 | 0.00221 | 5.5816 | 146.9512 | 261.8392 | 14.34715 | – |
| 2026 Apr 16 17:57 | 2026 Apr 13 04:22:43 | 74.0277 | 0.00221 | 5.5816 | 146.9512 | 261.8392 | 14.34715 | – |
| 2026 Apr 14 17:57 | 2026 Apr 13 04:22:43 | 74.0277 | 0.00221 | 5.5816 | 146.9512 | 261.8392 | 14.34715 | – |
| 2026 Apr 13 17:57 | 2026 Apr 13 04:22:43 | 74.0277 | 0.00221 | 5.5816 | 146.9512 | 261.8392 | 14.34715 | – |
| 2026 Apr 12 17:57 | 2026 Apr 08 08:54:26 | 74.0272 | 0.00223 | 6.1695 | 157.2189 | 261.8392 | 14.34715 | – |
| 2026 Apr 11 17:57 | 2026 Apr 08 08:54:26 | 74.0272 | 0.00223 | 6.1695 | 157.2189 | 261.8392 | 14.34715 | – |